Scroll down
FLIGHT INFORMATION
KLM Royal Dutch Airlines

KLM792

At Arrival Gate

SBGR
 EHAM
DATE: 2020-12-23
GATE:  -
GATE DEPARTURE: 22:50
TAKEOFF: 23:00
DATE: 2020-12-24
GATE:  -
LANDING: 10:15
GATE ARRIVAL: 10:25
FLIGHT DATA
Crew: 
Speed: 
930 kph
Altitude: 
37,047 ft
Stage Length: 
9,774.9 km
Block Time: 
11.5 hrs
Flight Time: 
11.3 hrs
Fuel Used: 
87,583 kg
Cleared Route: SBGR BCO IVRAG VUMEV UBRIR MAVMO UKAKI MOXIK OPKES PONVU BHZ ANSIX DEPOT NINSA TOMOP OBGAR MUDOL QUARU FORTI MUMLI APORT PUIDO GAVUN KODVI GAVOD PTL UKLEM GUTOI DAKAP VAMUS MOTBU MOVGA BIKOM ULTEM N2500.0W02800.0 SORAD N3500.0W02100.0 N4000.0W01800.0 GONAN EMPER GAPLI SUNFI TOFED GAJIT CPT IPRIL KOBBI BRAIN GASBA RATLO REDFA EHAM
TRACK DATA
50,000 ft 1,000 kts
AIRCRAFT INFO AND CUMULATIVE STATS
Aircraft Type: 
B77W
Registration: 
SELCAL: 
EKLR
MSN/LN: 
35979 / 807
Total Flights: 
7
Total Block Time: 
78.1 hrs
Total Flight Time: 
76.5 hrs
Total Fuel Used: 
564,665 kg
DATALINK LOG | Newest first | Current as of: 2023-02-07 09:20:33
LABEL SEQUENCE CONTENT Dn/Up
QD545610:25 24.9▼ Dn
QC493610:15▼ Dn
2U3016EHAM 240225Z 03012KT 360V060 8000 RA FEW006 BKN009 06/05 Q1005 NOSIG▲ Up
2S3016EHAM▼ Dn
5U4705TAF EHAM 232307Z 2400/2506 23010KT 9999 SCT015 BKN020 BECMG 2400/2402 6000 RADZ BKN007 BKN010 PROB30 2401/2404 2500 DZRA BKN005 BECMG 2403/2407 02015G28KT 9999 NSW SCT018 BECMG 2406/2408 34012KT PROB30 TEMPO 2410/2506 34015G25KT 6000 -SHRA SCT018CB▲ Up
5S4705EHAM▼ Dn
2U4704EHAM 240125Z 23007KT 9999 FEW005 BKN018 09/07 Q1004 BECMG 03012KT 7000▲ Up
2S4704EHAM▼ Dn
QB045223:00▼ Dn
QA535422:50 218.2▼ Dn
2U4648SBGR 231800Z 13007KT 9999 SCT015 OVC020 22/17 Q1016▲ Up
2S4648SBGR▼ Dn
A34647CLEARED TO EHAM VIA IVRA2B UBRIR UZ23 BHZ UZ61 PTL UKLEM GUTOI 0217S03922W DAKAP UZ51 MOVGA BIKOM ULTEM 25N028W SORAD 35N021W 40N018W GONAN EMPER GAPLI M197 GASBA M197 REDFA REDF1A. SQUAWK 1151.▲ Up
Q04546[LINK ACK]▲ Up
Q04546[LINK TEST]▼ Dn
QA454622:41 0▼ Dn
A32708CLEARED TO EHAM VIA IVRA2B UBRIR UZ23 BHZ UZ61 PTL UKLEM GUTOI 0217S03922W DAKAP UZ51 MOVGA BIKOM ULTEM 25N028W SORAD 35N021W 40N018W GONAN EMPER GAPLI M197 GASBA M197 REDFA REDF1A. SQUAWK 5575.▲ Up
2U2705SBGR 231800Z 13007KT 9999 SCT015 OVC020 22/17 Q1016▲ Up
2S2705SBGR▼ Dn
Q02557[LINK ACK]▲ Up
Q02557[LINK TEST]▼ Dn


AIRCRAFT HISTORY
FLIGHT DATE FLIGHT NO. ORIGIN DESTINATION CLEARED ROUTE BLOCK TIME FLIGHT TIME FUEL USED PILOT
2021-03-02KLM302EHAM FACT EHAM LOPIK VELED LUTOM BROGY TERLA LNO GESLO GOPAS DIK LIMGO SUTAL GTQ POGOL LASAT MIRGU SHARA TIRSO ARPUS TORPA MOROK GILIR GVA KOGAS VEVAR BARSO KOLON ROKNO EBORA GARPU SOVAG BUKID ERETI ETOIL CIRTA CSO TOLGA BOD ATAFA BERTI MELOG ERKEL EDAGO AS IKTAR MOLIT MIMBA KAN POLGA JOS EVGEL VONVI IKPUV AKLIS OBUDU DLA ARASI LUDNA ODOVA AYELA KOPOV EPASA RASOP KEKIR APEMI LIKAD AXULU OKLOD NIBOB UVUNI TIGIM EPMOR UDKEB EGMAT XADOP NIBUR VMO OKBIK OKDOL IXEPA DUGNU EGRIX APGEK XALVI ANSUX UNPIN IMRUG UTVUM APGAS XUDAN ETMUS ABV UVBUD ASPIK FACT13.6 hrs13.4 hrs206,868 lbAlex K.
2021-02-08KLM722TBPB EHAM TBPB FISST 2550N 3440N 4130N 4620N EVBAK RATKA DAWLY BRIPO GIBSO BEVUP ABKIM SAM HAZEL NIBDA NOVMA MID MODMI OCK KOBBI BRAIN GASBA RATLO REDFA SULUT SUGOL CI06 RW068.6 hrs8.4 hrs131,546 lbEmanuel Hagen
2021-02-06KLM721EHAM TBPB EHAM EH084 EH045 EH036 EH072 LEKKO KUDAD WOODY NIK DENOX CIV MEDIL PITHI LESDO KOVIN KIHVI PON DITAL GODIX DIDAK KURIS TERPO AKEMO IBISU COQUE XIDAN LAPEX SEPAL 4615N 4420N 4030N 3440N 2650N DRDGE BGI RW099.1 hrs9 hrs138,707 lbEmanuel Hagen
2020-12-23KLM792SBGR EHAM SBGR BCO IVRAG VUMEV UBRIR MAVMO UKAKI MOXIK OPKES PONVU BHZ ANSIX DEPOT NINSA TOMOP OBGAR MUDOL QUARU FORTI MUMLI APORT PUIDO GAVUN KODVI GAVOD PTL UKLEM GUTOI DAKAP VAMUS MOTBU MOVGA BIKOM ULTEM N2500.0W02800.0 SORAD N3500.0W02100.0 N4000.0W01800.0 GONAN EMPER GAPLI SUNFI TOFED GAJIT CPT IPRIL KOBBI BRAIN GASBA RATLO REDFA EHAM11.5 hrs11.3 hrs193,087 lbMichael Roth
2020-12-23KLM1222EHAM SBGR EHAM EH001 EH051 EH009 VALKO IDRID ABNED IBNOS XAMAN LOGAN JACKO TRIPO SABER LIVSU MANGO SIRGO GILDA MID NOVMA NIBDA HAZEL SAM KAPEX MARUK LORKU GOBUR TITUB BERAD QPR EBOMO KEREB COQUE KOLEK KORUL DEMOS ASMAR VERAM NELSO ROSTA NORED EDUMO GAMBA KENOX SAGRO DIGUN NANIK DIKEB PUNOM CARVE JOBER VADIR FLZ RODIT PUREU VAROP BISSA DALMA EGEDU XOMUK ILNOS MUGAV ILPUR HAMBU MALRA CARDO GEVMI NITGI LISBO DOKBA REINA PANAP UNIDO GAXEV MUMDI PABAV NIPKI OPRUT ESDAD MOXEP SBGR12.4 hrs12.1 hrs206,810 lbMichael Roth
2020-12-20KLM832RKSI EHAM RKSI SI707 SI713 SONJA NOPIK BINIL ANSIM DANTI GONAV AGAVO DONVO OBDIS SANKO POVAG DOBGA NUNDU MAKNO ALARA UNSEK ORAVA LC ANOBI OPIMU UKDUM ASILA UNTEN ERVEB POLHO MODUN ZAMUS GOBEZ PRING SERNA PIMIT KEMON LUTOG BAPIR AGANU GUDMI RELIK NEDAG LONKA RO USOPA SURIP NOVRA RONIK CE SOTIM SOREB PAROM NJC TETSI APRAN ULGUN OGIKA NEGNA LARTU ABGIL SORLI NETLU OGROM OSKEL SOGTE BAPES GUDES IDLIR ERSOM UMTAK ODNUS ROMUM GITOT ADLIN RUROS NEPEN MOGPI IDRAK TUBNI UMUTA BAPOK UMODI TURAL OKBES RANVA RESMO KEMET MOLOK TODNA RUTEK DEREX KOTAM EKRAL SUP ADVIS LILBI EVBED LUPUR KOPEX LANGO ALS DEMIR DEGUL GOLEN KUBAT EEL EHAM11.5 hrs11.3 hrs184,462 lbMichael Roth
2020-12-12KLM855EHAM RKSI 11.3 hrs11.1 hrs183,394 lbMichael Roth